Terminal Aerodrome Forecast
Issued by NWS Caribou, ME

Home | Current Version | Previous Version | Text Only | Print | Product List | Glossary On
Versions: 1 2 3 4 5 6 7 8 9 10 11 12 13 14 15 16 17 18 19 20
000
FTUS41 KCAR 281120
TAFCAR
TAF
KCAR 281120Z 2812/2912 22010KT P6SM SCT250
     FM281600 23010G18KT 5SM -SHRA VCTS BKN040CB
     FM282200 31008KT P6SM BKN040
     FM290000 34007KT P6SM BKN050=

USA.gov is the U.S. government's official web portal to all federal, state and local government web resources and services.